sensor_id;sensor_type;location;lat;lon;timestamp;temperature;humidity
19359;DHT22;9815;52.334;20.890;2022-12-18T00:00:06;-4.20;99.90
19359;DHT22;9815;52.334;20.890;2022-12-18T00:02:39;-4.20;99.90
19359;DHT22;9815;52.334;20.890;2022-12-18T00:05:07;-4.10;99.90
19359;DHT22;9815;52.334;20.890;2022-12-18T00:07:36;-4.10;99.90
19359;DHT22;9815;52.334;20.890;2022-12-18T00:10:05;-4.10;99.90
19359;DHT22;9815;52.334;20.890;2022-12-18T00:12:33;-4.10;99.90
19359;DHT22;9815;52.334;20.890;2022-12-18T00:15:02;-4.00;99.90
19359;DHT22;9815;52.334;20.890;2022-12-18T00:17:32;-4.10;99.90
19359;DHT22;9815;52.334;20.890;2022-12-18T00:20:00;-4.00;99.90
19359;DHT22;9815;52.334;20.890;2022-12-18T00:22:28;-4.00;99.90
19359;DHT22;9815;52.334;20.890;2022-12-18T00:24:56;-4.00;99.90
19359;DHT22;9815;52.334;20.890;2022-12-18T00:27:24;-3.90;99.90
19359;DHT22;9815;52.334;20.890;2022-12-18T00:29:52;-3.90;99.90
19359;DHT22;9815;52.334;20.890;2022-12-18T00:32:20;-3.90;99.90
19359;DHT22;9815;52.334;20.890;2022-12-18T00:34:50;-4.00;99.90
19359;DHT22;9815;52.334;20.890;2022-12-18T00:37:18;-3.90;99.90
19359;DHT22;9815;52.334;20.890;2022-12-18T00:39:50;-4.00;99.90
19359;DHT22;9815;52.334;20.890;2022-12-18T00:42:19;-3.90;99.90
19359;DHT22;9815;52.334;20.890;2022-12-18T00:45:05;-3.90;99.90
19359;DHT22;9815;52.334;20.890;2022-12-18T00:47:39;-3.90;99.90
19359;DHT22;9815;52.334;20.890;2022-12-18T00:50:09;-4.00;99.90
19359;DHT22;9815;52.334;20.890;2022-12-18T00:52:38;-3.90;99.90
19359;DHT22;9815;52.334;20.890;2022-12-18T00:55:07;-3.90;99.90
19359;DHT22;9815;52.334;20.890;2022-12-18T00:57:36;-3.90;99.90
19359;DHT22;9815;52.334;20.890;2022-12-18T01:00:08;-3.90;99.90
19359;DHT22;9815;52.334;20.890;2022-12-18T01:02:36;-4.00;99.90
19359;DHT22;9815;52.334;20.890;2022-12-18T01:05:09;-4.00;99.90
19359;DHT22;9815;52.334;20.890;2022-12-18T01:07:37;-4.00;99.90
19359;DHT22;9815;52.334;20.890;2022-12-18T01:10:07;-4.00;99.90
19359;DHT22;9815;52.334;20.890;2022-12-18T01:12:35;-4.00;99.90
19359;DHT22;9815;52.334;20.890;2022-12-18T01:15:05;-4.00;99.90
19359;DHT22;9815;52.334;20.890;2022-12-18T01:17:34;-3.90;99.90
19359;DHT22;9815;52.334;20.890;2022-12-18T01:20:03;-4.00;99.90
19359;DHT22;9815;52.334;20.890;2022-12-18T01:22:33;-4.00;99.90
19359;DHT22;9815;52.334;20.890;2022-12-18T01:25:02;-4.00;99.90
19359;DHT22;9815;52.334;20.890;2022-12-18T01:27:31;-3.90;99.90
19359;DHT22;9815;52.334;20.890;2022-12-18T01:29:59;-4.00;99.90
19359;DHT22;9815;52.334;20.890;2022-12-18T01:32:29;-4.00;99.90
19359;DHT22;9815;52.334;20.890;2022-12-18T01:34:57;-4.00;99.90
19359;DHT22;9815;52.334;20.890;2022-12-18T01:37:26;-4.00;99.90
19359;DHT22;9815;52.334;20.890;2022-12-18T01:39:56;-4.00;99.90
19359;DHT22;9815;52.334;20.890;2022-12-18T01:42:24;-4.00;99.90
19359;DHT22;9815;52.334;20.890;2022-12-18T01:45:03;-4.00;99.90
19359;DHT22;9815;52.334;20.890;2022-12-18T01:47:36;-4.00;99.90
19359;DHT22;9815;52.334;20.890;2022-12-18T01:50:08;-3.90;99.90
19359;DHT22;9815;52.334;20.890;2022-12-18T01:52:41;-3.90;99.90
19359;DHT22;9815;52.334;20.890;2022-12-18T01:55:12;-3.90;99.90
19359;DHT22;9815;52.334;20.890;2022-12-18T01:57:42;-3.90;99.90
19359;DHT22;9815;52.334;20.890;2022-12-18T02:00:15;-3.90;99.90
19359;DHT22;9815;52.334;20.890;2022-12-18T02:02:44;-4.00;99.90
19359;DHT22;9815;52.334;20.890;2022-12-18T02:05:16;-4.00;99.90
19359;DHT22;9815;52.334;20.890;2022-12-18T02:07:54;-4.00;99.90
19359;DHT22;9815;52.334;20.890;2022-12-18T02:10:36;-4.00;99.90
19359;DHT22;9815;52.334;20.890;2022-12-18T02:13:13;-4.10;99.90
19359;DHT22;9815;52.334;20.890;2022-12-18T02:15:46;-4.10;99.90
19359;DHT22;9815;52.334;20.890;2022-12-18T02:18:20;-4.10;99.90
19359;DHT22;9815;52.334;20.890;2022-12-18T02:20:52;-4.00;99.90
19359;DHT22;9815;52.334;20.890;2022-12-18T02:23:35;-4.00;99.90
19359;DHT22;9815;52.334;20.890;2022-12-18T02:26:14;-4.00;99.90
19359;DHT22;9815;52.334;20.890;2022-12-18T02:28:46;-4.10;99.90
19359;DHT22;9815;52.334;20.890;2022-12-18T02:31:19;-4.10;99.90
19359;DHT22;9815;52.334;20.890;2022-12-18T02:33:49;-4.10;99.90
19359;DHT22;9815;52.334;20.890;2022-12-18T02:36:20;-4.10;99.90
19359;DHT22;9815;52.334;20.890;2022-12-18T02:38:50;-4.00;99.90
19359;DHT22;9815;52.334;20.890;2022-12-18T02:41:25;-4.00;99.90
19359;DHT22;9815;52.334;20.890;2022-12-18T02:43:56;-4.00;99.90
19359;DHT22;9815;52.334;20.890;2022-12-18T02:46:31;-4.00;99.90
19359;DHT22;9815;52.334;20.890;2022-12-18T02:49:11;-4.00;99.90
19359;DHT22;9815;52.334;20.890;2022-12-18T02:51:50;-4.10;99.90
19359;DHT22;9815;52.334;20.890;2022-12-18T02:54:28;-4.00;99.90
19359;DHT22;9815;52.334;20.890;2022-12-18T02:57:08;-4.10;99.90
19359;DHT22;9815;52.334;20.890;2022-12-18T02:59:47;-3.90;99.90
19359;DHT22;9815;52.334;20.890;2022-12-18T03:02:21;-4.10;99.90
19359;DHT22;9815;52.334;20.890;2022-12-18T03:04:56;-4.10;99.90
19359;DHT22;9815;52.334;20.890;2022-12-18T03:07:32;-4.10;99.90
19359;DHT22;9815;52.334;20.890;2022-12-18T03:10:02;-4.10;99.90
19359;DHT22;9815;52.334;20.890;2022-12-18T03:12:36;-4.10;99.90
19359;DHT22;9815;52.334;20.890;2022-12-18T03:15:11;-4.20;99.90
19359;DHT22;9815;52.334;20.890;2022-12-18T03:17:50;-4.20;99.90
19359;DHT22;9815;52.334;20.890;2022-12-18T03:20:26;-4.20;99.90
19359;DHT22;9815;52.334;20.890;2022-12-18T03:23:02;-4.10;99.90
19359;DHT22;9815;52.334;20.890;2022-12-18T03:25:31;-4.00;99.90
19359;DHT22;9815;52.334;20.890;2022-12-18T03:28:03;-4.00;99.90
19359;DHT22;9815;52.334;20.890;2022-12-18T03:30:38;-4.00;99.90
19359;DHT22;9815;52.334;20.890;2022-12-18T03:33:12;-4.10;99.90
19359;DHT22;9815;52.334;20.890;2022-12-18T03:35:46;-4.10;99.90
19359;DHT22;9815;52.334;20.890;2022-12-18T03:38:16;-4.10;99.90
19359;DHT22;9815;52.334;20.890;2022-12-18T03:40:53;-4.20;99.90
19359;DHT22;9815;52.334;20.890;2022-12-18T03:43:34;-4.10;99.90
19359;DHT22;9815;52.334;20.890;2022-12-18T03:46:10;-4.20;99.90
19359;DHT22;9815;52.334;20.890;2022-12-18T03:48:51;-4.20;99.90
19359;DHT22;9815;52.334;20.890;2022-12-18T03:51:25;-4.20;99.90
19359;DHT22;9815;52.334;20.890;2022-12-18T03:53:58;-4.20;99.90
19359;DHT22;9815;52.334;20.890;2022-12-18T03:56:35;-4.20;99.90
19359;DHT22;9815;52.334;20.890;2022-12-18T03:59:08;-4.20;99.90
19359;DHT22;9815;52.334;20.890;2022-12-18T04:01:40;-4.20;99.90
19359;DHT22;9815;52.334;20.890;2022-12-18T04:04:13;-4.20;99.90
19359;DHT22;9815;52.334;20.890;2022-12-18T04:06:43;-4.30;99.90
19359;DHT22;9815;52.334;20.890;2022-12-18T04:09:13;-4.30;99.90
19359;DHT22;9815;52.334;20.890;2022-12-18T04:11:46;-4.30;99.90
19359;DHT22;9815;52.334;20.890;2022-12-18T04:14:17;-4.30;99.90
19359;DHT22;9815;52.334;20.890;2022-12-18T04:16:49;-4.40;99.90
19359;DHT22;9815;52.334;20.890;2022-12-18T04:19:22;-4.40;99.90
19359;DHT22;9815;52.334;20.890;2022-12-18T04:21:52;-4.30;99.90
19359;DHT22;9815;52.334;20.890;2022-12-18T04:24:20;-4.30;99.90
19359;DHT22;9815;52.334;20.890;2022-12-18T04:27:02;-4.40;99.90
19359;DHT22;9815;52.334;20.890;2022-12-18T04:29:39;-4.40;99.90
19359;DHT22;9815;52.334;20.890;2022-12-18T04:32:08;-4.40;99.90
19359;DHT22;9815;52.334;20.890;2022-12-18T04:34:37;-4.40;99.90
19359;DHT22;9815;52.334;20.890;2022-12-18T04:37:05;-4.40;99.90
19359;DHT22;9815;52.334;20.890;2022-12-18T04:39:34;-4.40;99.90
19359;DHT22;9815;52.334;20.890;2022-12-18T04:42:08;-4.40;99.90
19359;DHT22;9815;52.334;20.890;2022-12-18T04:44:36;-4.70;99.90
19359;DHT22;9815;52.334;20.890;2022-12-18T04:47:05;-4.80;99.90
19359;DHT22;9815;52.334;20.890;2022-12-18T04:49:34;-4.80;99.90
19359;DHT22;9815;52.334;20.890;2022-12-18T04:52:02;-4.90;99.90
19359;DHT22;9815;52.334;20.890;2022-12-18T04:54:33;-5.00;99.90
19359;DHT22;9815;52.334;20.890;2022-12-18T04:57:01;-5.20;99.90
19359;DHT22;9815;52.334;20.890;2022-12-18T04:59:30;-5.20;99.90
19359;DHT22;9815;52.334;20.890;2022-12-18T05:01:58;-5.40;99.90
19359;DHT22;9815;52.334;20.890;2022-12-18T05:04:27;-5.50;99.90
19359;DHT22;9815;52.334;20.890;2022-12-18T05:06:55;-5.60;99.90
19359;DHT22;9815;52.334;20.890;2022-12-18T05:09:24;-5.70;99.90
19359;DHT22;9815;52.334;20.890;2022-12-18T05:11:52;-5.70;99.90
19359;DHT22;9815;52.334;20.890;2022-12-18T05:14:20;-5.70;99.90
19359;DHT22;9815;52.334;20.890;2022-12-18T05:16:48;-5.70;99.90
19359;DHT22;9815;52.334;20.890;2022-12-18T05:19:17;-5.70;99.90
19359;DHT22;9815;52.334;20.890;2022-12-18T05:21:46;-5.70;99.90
19359;DHT22;9815;52.334;20.890;2022-12-18T05:24:14;-5.80;99.90
19359;DHT22;9815;52.334;20.890;2022-12-18T05:26:43;-5.70;99.90
19359;DHT22;9815;52.334;20.890;2022-12-18T05:29:11;-5.70;99.90
19359;DHT22;9815;52.334;20.890;2022-12-18T05:31:39;-5.70;99.90
19359;DHT22;9815;52.334;20.890;2022-12-18T05:34:09;-5.70;99.90
19359;DHT22;9815;52.334;20.890;2022-12-18T05:36:38;-5.70;99.90
19359;DHT22;9815;52.334;20.890;2022-12-18T05:39:08;-5.70;99.90
19359;DHT22;9815;52.334;20.890;2022-12-18T05:41:36;-5.60;99.90
19359;DHT22;9815;52.334;20.890;2022-12-18T05:44:04;-5.60;99.90
19359;DHT22;9815;52.334;20.890;2022-12-18T05:46:32;-5.60;99.90
19359;DHT22;9815;52.334;20.890;2022-12-18T05:49:01;-5.60;99.90
19359;DHT22;9815;52.334;20.890;2022-12-18T05:51:29;-5.40;99.90
19359;DHT22;9815;52.334;20.890;2022-12-18T05:53:58;-5.40;99.90
19359;DHT22;9815;52.334;20.890;2022-12-18T05:56:27;-5.30;99.90
19359;DHT22;9815;52.334;20.890;2022-12-18T05:58:55;-5.20;99.90
19359;DHT22;9815;52.334;20.890;2022-12-18T06:01:25;-5.20;99.90
19359;DHT22;9815;52.334;20.890;2022-12-18T06:03:54;-5.10;99.90
19359;DHT22;9815;52.334;20.890;2022-12-18T06:06:24;-5.10;99.90
19359;DHT22;9815;52.334;20.890;2022-12-18T06:08:53;-5.00;99.90
19359;DHT22;9815;52.334;20.890;2022-12-18T06:11:23;-5.00;99.90
19359;DHT22;9815;52.334;20.890;2022-12-18T06:13:54;-5.00;99.90
19359;DHT22;9815;52.334;20.890;2022-12-18T06:16:25;-4.90;99.90
19359;DHT22;9815;52.334;20.890;2022-12-18T06:18:55;-5.00;99.90
19359;DHT22;9815;52.334;20.890;2022-12-18T06:21:24;-5.00;99.90
19359;DHT22;9815;52.334;20.890;2022-12-18T06:23:52;-4.90;99.90
19359;DHT22;9815;52.334;20.890;2022-12-18T06:26:20;-4.80;99.90
19359;DHT22;9815;52.334;20.890;2022-12-18T06:28:55;-4.80;99.90
19359;DHT22;9815;52.334;20.890;2022-12-18T06:31:24;-4.90;99.90
19359;DHT22;9815;52.334;20.890;2022-12-18T06:33:53;-4.80;99.90
19359;DHT22;9815;52.334;20.890;2022-12-18T06:36:21;-4.80;99.90
19359;DHT22;9815;52.334;20.890;2022-12-18T06:38:49;-4.80;99.90
19359;DHT22;9815;52.334;20.890;2022-12-18T06:41:19;-4.80;99.90
19359;DHT22;9815;52.334;20.890;2022-12-18T06:43:48;-4.70;99.90
19359;DHT22;9815;52.334;20.890;2022-12-18T06:46:17;-4.70;99.90
19359;DHT22;9815;52.334;20.890;2022-12-18T06:48:48;-4.70;99.90
19359;DHT22;9815;52.334;20.890;2022-12-18T06:51:20;-4.70;99.90
19359;DHT22;9815;52.334;20.890;2022-12-18T06:53:49;-4.70;99.90
19359;DHT22;9815;52.334;20.890;2022-12-18T06:56:17;-4.70;99.90
19359;DHT22;9815;52.334;20.890;2022-12-18T06:58:45;-4.70;99.90
19359;DHT22;9815;52.334;20.890;2022-12-18T07:01:14;-4.70;99.90
19359;DHT22;9815;52.334;20.890;2022-12-18T07:03:43;-4.60;99.90
19359;DHT22;9815;52.334;20.890;2022-12-18T07:06:16;-4.60;99.90
19359;DHT22;9815;52.334;20.890;2022-12-18T07:08:45;-4.60;99.90
19359;DHT22;9815;52.334;20.890;2022-12-18T07:11:14;-4.50;99.90
19359;DHT22;9815;52.334;20.890;2022-12-18T07:13:43;-4.50;99.90
19359;DHT22;9815;52.334;20.890;2022-12-18T07:16:13;-4.40;99.90
19359;DHT22;9815;52.334;20.890;2022-12-18T07:18:51;-4.40;99.90
19359;DHT22;9815;52.334;20.890;2022-12-18T07:21:20;-4.30;99.90
19359;DHT22;9815;52.334;20.890;2022-12-18T07:23:48;-4.30;99.90
19359;DHT22;9815;52.334;20.890;2022-12-18T07:26:18;-4.30;99.90
19359;DHT22;9815;52.334;20.890;2022-12-18T07:28:47;-4.30;99.90
19359;DHT22;9815;52.334;20.890;2022-12-18T07:31:17;-4.30;99.90
19359;DHT22;9815;52.334;20.890;2022-12-18T07:33:47;-4.20;99.90
19359;DHT22;9815;52.334;20.890;2022-12-18T07:36:18;-4.10;99.90
19359;DHT22;9815;52.334;20.890;2022-12-18T07:38:47;-4.00;99.90
19359;DHT22;9815;52.334;20.890;2022-12-18T07:41:17;-4.00;99.90
19359;DHT22;9815;52.334;20.890;2022-12-18T07:43:46;-4.10;99.90
19359;DHT22;9815;52.334;20.890;2022-12-18T07:46:16;-4.00;99.90
19359;DHT22;9815;52.334;20.890;2022-12-18T07:48:45;-4.00;99.90
19359;DHT22;9815;52.334;20.890;2022-12-18T07:51:18;-4.00;99.90
19359;DHT22;9815;52.334;20.890;2022-12-18T07:53:47;-4.00;99.90
19359;DHT22;9815;52.334;20.890;2022-12-18T07:56:19;-3.90;99.90
19359;DHT22;9815;52.334;20.890;2022-12-18T07:58:54;-3.90;99.90
19359;DHT22;9815;52.334;20.890;2022-12-18T08:01:23;-3.80;99.90
19359;DHT22;9815;52.334;20.890;2022-12-18T08:03:51;-3.90;99.90
19359;DHT22;9815;52.334;20.890;2022-12-18T08:06:21;-3.90;99.90
19359;DHT22;9815;52.334;20.890;2022-12-18T08:08:51;-3.90;99.90
19359;DHT22;9815;52.334;20.890;2022-12-18T08:11:21;-3.90;99.90
19359;DHT22;9815;52.334;20.890;2022-12-18T08:13:49;-3.80;99.90
19359;DHT22;9815;52.334;20.890;2022-12-18T08:16:17;-3.80;99.90
19359;DHT22;9815;52.334;20.890;2022-12-18T08:18:46;-3.80;99.90
19359;DHT22;9815;52.334;20.890;2022-12-18T08:21:18;-3.70;99.90
19359;DHT22;9815;52.334;20.890;2022-12-18T08:23:49;-3.70;99.90
19359;DHT22;9815;52.334;20.890;2022-12-18T08:26:18;-3.80;99.90
19359;DHT22;9815;52.334;20.890;2022-12-18T08:28:47;-3.80;99.90
19359;DHT22;9815;52.334;20.890;2022-12-18T08:31:17;-3.80;99.90
19359;DHT22;9815;52.334;20.890;2022-12-18T08:33:48;-3.70;99.90
19359;DHT22;9815;52.334;20.890;2022-12-18T08:36:17;-3.60;99.90
19359;DHT22;9815;52.334;20.890;2022-12-18T08:38:46;-3.40;99.90
19359;DHT22;9815;52.334;20.890;2022-12-18T08:41:16;-3.40;99.90
19359;DHT22;9815;52.334;20.890;2022-12-18T08:43:45;-3.40;99.90
19359;DHT22;9815;52.334;20.890;2022-12-18T08:46:35;-3.50;99.90
19359;DHT22;9815;52.334;20.890;2022-12-18T08:49:05;-3.40;99.90
19359;DHT22;9815;52.334;20.890;2022-12-18T08:51:34;-3.50;99.90
19359;DHT22;9815;52.334;20.890;2022-12-18T08:54:03;-3.50;99.90
19359;DHT22;9815;52.334;20.890;2022-12-18T08:56:33;-3.60;99.90
19359;DHT22;9815;52.334;20.890;2022-12-18T08:59:02;-3.60;99.90
19359;DHT22;9815;52.334;20.890;2022-12-18T09:01:31;-3.60;99.90
19359;DHT22;9815;52.334;20.890;2022-12-18T09:04:01;-3.60;99.90
19359;DHT22;9815;52.334;20.890;2022-12-18T09:06:30;-3.60;99.90
19359;DHT22;9815;52.334;20.890;2022-12-18T09:08:58;-3.60;99.90
19359;DHT22;9815;52.334;20.890;2022-12-18T09:11:28;-3.60;99.90
19359;DHT22;9815;52.334;20.890;2022-12-18T09:13:58;-3.60;99.90
19359;DHT22;9815;52.334;20.890;2022-12-18T09:16:28;-3.60;99.90
19359;DHT22;9815;52.334;20.890;2022-12-18T09:18:58;-3.60;99.90
19359;DHT22;9815;52.334;20.890;2022-12-18T09:21:28;-3.50;99.90
19359;DHT22;9815;52.334;20.890;2022-12-18T09:23:58;-3.30;99.90
19359;DHT22;9815;52.334;20.890;2022-12-18T09:26:26;-3.30;99.90
19359;DHT22;9815;52.334;20.890;2022-12-18T09:28:54;-3.30;99.90
19359;DHT22;9815;52.334;20.890;2022-12-18T09:31:24;-3.20;99.90
19359;DHT22;9815;52.334;20.890;2022-12-18T09:33:52;-3.20;99.90
19359;DHT22;9815;52.334;20.890;2022-12-18T09:36:22;-3.10;99.90
19359;DHT22;9815;52.334;20.890;2022-12-18T09:38:50;-3.00;99.90
19359;DHT22;9815;52.334;20.890;2022-12-18T09:41:35;-3.00;99.90
19359;DHT22;9815;52.334;20.890;2022-12-18T09:44:17;-2.90;99.90
19359;DHT22;9815;52.334;20.890;2022-12-18T09:46:50;-2.90;99.90
19359;DHT22;9815;52.334;20.890;2022-12-18T09:49:28;-2.90;99.90
19359;DHT22;9815;52.334;20.890;2022-12-18T09:52:00;-2.70;99.90
19359;DHT22;9815;52.334;20.890;2022-12-18T09:54:32;-2.70;99.90
19359;DHT22;9815;52.334;20.890;2022-12-18T09:57:01;-2.70;99.90
19359;DHT22;9815;52.334;20.890;2022-12-18T09:59:33;-2.60;99.90
19359;DHT22;9815;52.334;20.890;2022-12-18T10:02:14;-2.80;99.90
19359;DHT22;9815;52.334;20.890;2022-12-18T10:04:43;-2.80;99.90
19359;DHT22;9815;52.334;20.890;2022-12-18T10:07:15;-2.90;99.90
19359;DHT22;9815;52.334;20.890;2022-12-18T10:09:51;-3.00;99.90
19359;DHT22;9815;52.334;20.890;2022-12-18T10:12:24;-2.90;99.90
19359;DHT22;9815;52.334;20.890;2022-12-18T10:14:59;-3.00;99.90
19359;DHT22;9815;52.334;20.890;2022-12-18T10:17:37;-2.90;99.90
19359;DHT22;9815;52.334;20.890;2022-12-18T10:20:13;-3.00;99.90
19359;DHT22;9815;52.334;20.890;2022-12-18T10:22:48;-3.00;99.90
19359;DHT22;9815;52.334;20.890;2022-12-18T10:25:22;-2.90;99.90
19359;DHT22;9815;52.334;20.890;2022-12-18T10:27:56;-2.90;99.90
19359;DHT22;9815;52.334;20.890;2022-12-18T10:30:25;-2.90;99.90
19359;DHT22;9815;52.334;20.890;2022-12-18T10:33:00;-2.90;99.90
19359;DHT22;9815;52.334;20.890;2022-12-18T10:35:29;-2.90;99.90
19359;DHT22;9815;52.334;20.890;2022-12-18T10:38:04;-2.80;99.90
19359;DHT22;9815;52.334;20.890;2022-12-18T10:40:47;-2.80;99.90
19359;DHT22;9815;52.334;20.890;2022-12-18T10:43:20;-2.70;99.90
19359;DHT22;9815;52.334;20.890;2022-12-18T10:46:02;-2.70;99.90
19359;DHT22;9815;52.334;20.890;2022-12-18T10:48:34;-2.60;99.90
19359;DHT22;9815;52.334;20.890;2022-12-18T10:51:05;-2.60;99.90
19359;DHT22;9815;52.334;20.890;2022-12-18T10:53:41;-2.60;99.90
19359;DHT22;9815;52.334;20.890;2022-12-18T10:56:10;-2.60;99.90
19359;DHT22;9815;52.334;20.890;2022-12-18T10:58:39;-2.50;99.90
19359;DHT22;9815;52.334;20.890;2022-12-18T11:01:10;-2.50;99.90
19359;DHT22;9815;52.334;20.890;2022-12-18T11:03:41;-2.70;99.90
19359;DHT22;9815;52.334;20.890;2022-12-18T11:06:13;-2.60;99.90
19359;DHT22;9815;52.334;20.890;2022-12-18T11:08:43;-2.60;99.90
19359;DHT22;9815;52.334;20.890;2022-12-18T11:11:19;-2.70;99.90
19359;DHT22;9815;52.334;20.890;2022-12-18T11:14:00;-2.60;99.90
19359;DHT22;9815;52.334;20.890;2022-12-18T11:16:32;-2.60;99.90
19359;DHT22;9815;52.334;20.890;2022-12-18T11:19:28;-2.60;99.90
19359;DHT22;9815;52.334;20.890;2022-12-18T11:21:58;-2.50;99.90
19359;DHT22;9815;52.334;20.890;2022-12-18T11:24:36;-2.50;99.90
19359;DHT22;9815;52.334;20.890;2022-12-18T11:27:47;-2.50;99.90
19359;DHT22;9815;52.334;20.890;2022-12-18T11:30:22;-2.40;99.90
19359;DHT22;9815;52.334;20.890;2022-12-18T11:32:51;-2.40;99.90
19359;DHT22;9815;52.334;20.890;2022-12-18T11:35:30;-2.30;99.90
19359;DHT22;9815;52.334;20.890;2022-12-18T11:38:06;-2.30;99.90
19359;DHT22;9815;52.334;20.890;2022-12-18T11:40:41;-2.10;99.90
19359;DHT22;9815;52.334;20.890;2022-12-18T11:43:13;-2.10;99.90
19359;DHT22;9815;52.334;20.890;2022-12-18T11:45:48;-2.20;99.90
19359;DHT22;9815;52.334;20.890;2022-12-18T11:48:22;-2.10;99.90
19359;DHT22;9815;52.334;20.890;2022-12-18T11:50:54;-2.30;99.90
19359;DHT22;9815;52.334;20.890;2022-12-18T11:53:24;-2.20;99.90
19359;DHT22;9815;52.334;20.890;2022-12-18T11:56:02;-2.20;99.90
19359;DHT22;9815;52.334;20.890;2022-12-18T11:58:46;-2.10;99.90
19359;DHT22;9815;52.334;20.890;2022-12-18T12:01:28;-2.10;99.90
19359;DHT22;9815;52.334;20.890;2022-12-18T12:04:26;-2.00;99.90
19359;DHT22;9815;52.334;20.890;2022-12-18T12:07:07;-1.90;99.90
19359;DHT22;9815;52.334;20.890;2022-12-18T12:09:45;-1.80;99.90
19359;DHT22;9815;52.334;20.890;2022-12-18T12:12:27;-1.80;99.90
19359;DHT22;9815;52.334;20.890;2022-12-18T12:15:22;-1.80;99.90
19359;DHT22;9815;52.334;20.890;2022-12-18T12:17:55;-1.90;99.90
19359;DHT22;9815;52.334;20.890;2022-12-18T12:20:44;-1.90;99.90
19359;DHT22;9815;52.334;20.890;2022-12-18T12:23:20;-1.90;99.90
19359;DHT22;9815;52.334;20.890;2022-12-18T12:25:57;-1.80;99.90
19359;DHT22;9815;52.334;20.890;2022-12-18T12:28:45;-1.80;99.90
19359;DHT22;9815;52.334;20.890;2022-12-18T12:31:26;-1.80;99.90
19359;DHT22;9815;52.334;20.890;2022-12-18T12:34:04;-1.80;99.90
19359;DHT22;9815;52.334;20.890;2022-12-18T12:36:42;-1.90;99.90
19359;DHT22;9815;52.334;20.890;2022-12-18T12:39:20;-1.80;99.90
19359;DHT22;9815;52.334;20.890;2022-12-18T12:41:49;-1.90;99.90
19359;DHT22;9815;52.334;20.890;2022-12-18T12:44:37;-1.90;99.90
19359;DHT22;9815;52.334;20.890;2022-12-18T12:47:11;-2.00;99.90
19359;DHT22;9815;52.334;20.890;2022-12-18T12:49:46;-2.00;99.90
19359;DHT22;9815;52.334;20.890;2022-12-18T12:52:29;-1.90;99.90
19359;DHT22;9815;52.334;20.890;2022-12-18T12:55:02;-1.90;99.90
19359;DHT22;9815;52.334;20.890;2022-12-18T12:57:43;-2.00;99.90
19359;DHT22;9815;52.334;20.890;2022-12-18T13:02:46;-2.20;99.90
19359;DHT22;9815;52.334;20.890;2022-12-18T13:05:21;-2.30;99.90
19359;DHT22;9815;52.334;20.890;2022-12-18T13:07:55;-2.30;99.90
19359;DHT22;9815;52.334;20.890;2022-12-18T13:10:34;-2.30;99.90
19359;DHT22;9815;52.334;20.890;2022-12-18T13:13:06;-2.30;99.90
19359;DHT22;9815;52.334;20.890;2022-12-18T13:15:43;-2.30;99.90
19359;DHT22;9815;52.334;20.890;2022-12-18T13:18:18;-2.30;99.90
19359;DHT22;9815;52.334;20.890;2022-12-18T13:20:49;-2.40;99.90
19359;DHT22;9815;52.334;20.890;2022-12-18T13:23:31;-2.40;99.90
19359;DHT22;9815;52.334;20.890;2022-12-18T13:26:33;-2.40;99.90
19359;DHT22;9815;52.334;20.890;2022-12-18T13:29:02;-2.50;99.90
19359;DHT22;9815;52.334;20.890;2022-12-18T13:34:36;-2.70;99.90
19359;DHT22;9815;52.334;20.890;2022-12-18T13:40:55;-2.70;99.90
19359;DHT22;9815;52.334;20.890;2022-12-18T13:43:37;-2.80;99.90
19359;DHT22;9815;52.334;20.890;2022-12-18T13:46:21;-2.80;99.90
19359;DHT22;9815;52.334;20.890;2022-12-18T13:48:53;-2.90;99.90
19359;DHT22;9815;52.334;20.890;2022-12-18T13:51:23;-3.00;99.90
19359;DHT22;9815;52.334;20.890;2022-12-18T13:53:56;-3.00;99.90
19359;DHT22;9815;52.334;20.890;2022-12-18T13:56:27;-3.10;99.90
19359;DHT22;9815;52.334;20.890;2022-12-18T13:59:16;-3.10;99.90
19359;DHT22;9815;52.334;20.890;2022-12-18T14:01:46;-3.10;99.90
19359;DHT22;9815;52.334;20.890;2022-12-18T14:04:30;-3.10;99.90
19359;DHT22;9815;52.334;20.890;2022-12-18T14:07:02;-3.20;99.90
19359;DHT22;9815;52.334;20.890;2022-12-18T14:09:35;-3.20;99.90
19359;DHT22;9815;52.334;20.890;2022-12-18T14:12:06;-3.20;99.90
19359;DHT22;9815;52.334;20.890;2022-12-18T14:15:00;-3.10;99.90
19359;DHT22;9815;52.334;20.890;2022-12-18T14:17:30;-3.20;99.90
19359;DHT22;9815;52.334;20.890;2022-12-18T14:20:00;-3.20;99.90
19359;DHT22;9815;52.334;20.890;2022-12-18T14:22:29;-3.20;99.90
19359;DHT22;9815;52.334;20.890;2022-12-18T14:25:14;-3.10;99.90
19359;DHT22;9815;52.334;20.890;2022-12-18T14:27:43;-3.20;99.90
19359;DHT22;9815;52.334;20.890;2022-12-18T14:30:31;-3.20;99.90
19359;DHT22;9815;52.334;20.890;2022-12-18T14:33:02;-3.30;99.90
19359;DHT22;9815;52.334;20.890;2022-12-18T14:35:31;-3.30;99.90
19359;DHT22;9815;52.334;20.890;2022-12-18T14:38:27;-3.30;99.90
19359;DHT22;9815;52.334;20.890;2022-12-18T14:41:01;-3.30;99.90
19359;DHT22;9815;52.334;20.890;2022-12-18T14:43:32;-3.30;99.90
19359;DHT22;9815;52.334;20.890;2022-12-18T14:46:03;-3.40;99.90
19359;DHT22;9815;52.334;20.890;2022-12-18T14:48:38;-3.50;99.90
19359;DHT22;9815;52.334;20.890;2022-12-18T14:51:15;-3.50;99.90
19359;DHT22;9815;52.334;20.890;2022-12-18T14:53:45;-3.50;99.90
19359;DHT22;9815;52.334;20.890;2022-12-18T14:56:22;-3.50;99.90
19359;DHT22;9815;52.334;20.890;2022-12-18T14:58:52;-3.50;99.90
19359;DHT22;9815;52.334;20.890;2022-12-18T15:01:25;-3.60;99.90
19359;DHT22;9815;52.334;20.890;2022-12-18T15:03:55;-3.50;99.90
19359;DHT22;9815;52.334;20.890;2022-12-18T15:06:30;-3.50;99.90
19359;DHT22;9815;52.334;20.890;2022-12-18T15:08:59;-3.60;99.90
19359;DHT22;9815;52.334;20.890;2022-12-18T15:11:34;-3.60;99.90
19359;DHT22;9815;52.334;20.890;2022-12-18T15:14:31;-3.50;99.90
19359;DHT22;9815;52.334;20.890;2022-12-18T15:17:05;-3.60;99.90
19359;DHT22;9815;52.334;20.890;2022-12-18T15:19:38;-3.60;99.90
19359;DHT22;9815;52.334;20.890;2022-12-18T15:22:18;-3.60;99.90
19359;DHT22;9815;52.334;20.890;2022-12-18T15:24:48;-3.60;99.90
19359;DHT22;9815;52.334;20.890;2022-12-18T15:27:27;-3.70;99.90
19359;DHT22;9815;52.334;20.890;2022-12-18T15:30:26;-3.70;99.90
19359;DHT22;9815;52.334;20.890;2022-12-18T15:33:24;-3.70;99.90
19359;DHT22;9815;52.334;20.890;2022-12-18T15:35:56;-3.70;99.90
19359;DHT22;9815;52.334;20.890;2022-12-18T15:38:25;-3.70;99.90
19359;DHT22;9815;52.334;20.890;2022-12-18T15:40:54;-3.70;99.90
19359;DHT22;9815;52.334;20.890;2022-12-18T15:43:23;-3.70;99.90
19359;DHT22;9815;52.334;20.890;2022-12-18T15:46:06;-3.80;99.90
19359;DHT22;9815;52.334;20.890;2022-12-18T15:48:38;-3.70;99.90
19359;DHT22;9815;52.334;20.890;2022-12-18T15:51:14;-3.70;99.90
19359;DHT22;9815;52.334;20.890;2022-12-18T15:53:44;-3.70;99.90
19359;DHT22;9815;52.334;20.890;2022-12-18T15:56:13;-3.80;99.90
19359;DHT22;9815;52.334;20.890;2022-12-18T15:58:59;-3.70;99.90
19359;DHT22;9815;52.334;20.890;2022-12-18T16:01:31;-3.70;99.90
19359;DHT22;9815;52.334;20.890;2022-12-18T16:04:08;-3.60;99.90
19359;DHT22;9815;52.334;20.890;2022-12-18T16:06:38;-3.80;99.90
19359;DHT22;9815;52.334;20.890;2022-12-18T16:09:27;-3.70;99.90
19359;DHT22;9815;52.334;20.890;2022-12-18T16:12:00;-3.70;99.90
19359;DHT22;9815;52.334;20.890;2022-12-18T16:14:30;-3.70;99.90